createdAt,value
2023-03-22T00:01:15.305Z,97957.09
2023-03-22T00:03:43.440Z,97956.53
2023-03-22T00:06:11.304Z,97951.41
2023-03-22T00:08:39.156Z,97944.19
2023-03-22T00:11:07.887Z,97941.13
2023-03-22T00:13:37.242Z,97940.66
2023-03-22T00:16:07.719Z,97953.75
2023-03-22T00:18:35.558Z,97951.03
2023-03-22T00:21:03.468Z,97953.31
2023-03-22T00:23:31.297Z,97957.63
2023-03-22T00:25:59.270Z,97951.03
2023-03-22T00:28:28.182Z,97955.75
2023-03-22T00:30:58.148Z,97950.28
2023-03-22T00:33:27.639Z,97944.41
2023-03-22T00:35:59.106Z,97940.88
2023-03-22T00:38:42.124Z,97936.91
2023-03-22T00:41:12.777Z,97929.78
2023-03-22T00:43:41.284Z,97927.41
2023-03-22T00:46:10.015Z,97925.13
2023-03-22T00:48:39.376Z,97931.72
2023-03-22T00:51:07.708Z,97940.63
2023-03-22T00:53:36.543Z,97929.19
2023-03-22T00:56:04.902Z,97927.19
2023-03-22T00:58:32.636Z,97935.16
2023-03-22T01:01:00.532Z,97929.47
2023-03-22T01:03:28.413Z,97929.28
2023-03-22T01:05:57.734Z,97938.56
2023-03-22T01:08:25.574Z,97937.50
2023-03-22T01:10:53.419Z,97943.66
2023-03-22T01:13:21.161Z,97933.63
2023-03-22T01:15:51.574Z,97935.75
2023-03-22T01:18:19.920Z,97926.84
2023-03-22T01:20:47.706Z,97928.38
2023-03-22T01:23:16.837Z,97930.19
2023-03-22T01:25:44.558Z,97922.00
2023-03-22T01:28:12.404Z,97917.69
2023-03-22T01:30:41.412Z,97919.53
2023-03-22T01:33:09.799Z,97919.44
2023-03-22T01:35:38.348Z,97908.88
2023-03-22T01:38:06.620Z,97916.28
2023-03-22T01:40:36.103Z,97906.88
2023-03-22T01:43:03.957Z,97908.94
2023-03-22T01:45:45.912Z,97902.94
2023-03-22T01:48:18.868Z,97904.19
2023-03-22T01:50:56.143Z,97903.22
2023-03-22T01:53:26.829Z,97907.53
2023-03-22T01:55:58.743Z,97900.50
2023-03-22T01:58:26.886Z,97902.22
2023-03-22T02:00:55.523Z,97899.50
2023-03-22T02:03:30.997Z,97905.41
2023-03-22T02:05:59.021Z,97894.28
2023-03-22T02:08:26.797Z,97893.69
2023-03-22T02:10:55.982Z,97888.25
2023-03-22T02:13:47.804Z,97888.78
2023-03-22T02:16:31.862Z,97888.34
2023-03-22T02:19:15.265Z,97897.41
2023-03-22T02:22:13.300Z,97886.22
2023-03-22T02:25:05.420Z,97893.09
2023-03-22T02:28:09.104Z,97887.72
2023-03-22T02:31:25.457Z,97897.13
2023-03-22T02:34:33.690Z,97897.41
2023-03-22T02:37:23.122Z,97887.19
2023-03-22T02:39:56.924Z,97893.09
2023-03-22T02:42:35.771Z,97881.28
2023-03-22T02:45:09.089Z,97880.59
2023-03-22T02:47:43.429Z,97875.66
2023-03-22T02:50:18.167Z,97880.59
2023-03-22T02:52:51.793Z,97884.91
2023-03-22T02:55:25.184Z,97877.41
2023-03-22T02:57:58.323Z,97874.59
2023-03-22T03:00:28.178Z,97875.09
2023-03-22T03:03:01.157Z,97873.25
2023-03-22T03:05:32.874Z,97870.34
2023-03-22T03:08:03.639Z,97862.22
2023-03-22T03:10:34.419Z,97865.91
2023-03-22T03:13:02.358Z,97870.31
2023-03-22T03:15:31.103Z,97877.47
2023-03-22T03:18:14.266Z,97876.59
2023-03-22T03:20:53.145Z,97872.81
2023-03-22T03:23:29.803Z,97872.03
2023-03-22T03:26:07.210Z,97865.00
2023-03-22T03:28:40.209Z,97871.13
2023-03-22T03:31:17.810Z,97874.81
2023-03-22T03:33:52.849Z,97869.84
2023-03-22T03:36:23.426Z,97872.44
2023-03-22T03:38:54.280Z,97870.75
2023-03-22T03:41:26.598Z,97875.28
2023-03-22T03:43:56.095Z,97882.59
2023-03-22T03:46:25.938Z,97880.78
2023-03-22T03:48:56.617Z,97873.50
2023-03-22T03:51:24.496Z,97867.38
2023-03-22T03:53:52.198Z,97869.19
2023-03-22T03:56:19.898Z,97877.38
2023-03-22T03:58:49.176Z,97878.97
2023-03-22T04:01:19.645Z,97877.38
2023-03-22T04:03:50.670Z,97888.47
2023-03-22T04:06:18.604Z,97884.31
2023-03-22T04:08:46.597Z,97882.25
2023-03-22T04:11:14.384Z,97882.59
2023-03-22T04:13:42.052Z,97885.19
2023-03-22T04:16:11.509Z,97884.31
2023-03-22T04:18:39.849Z,97887.38
2023-03-22T04:21:08.289Z,97889.63
2023-03-22T04:23:36.014Z,97890.19
2023-03-22T04:26:03.821Z,97889.50
2023-03-22T04:28:33.888Z,97885.09
2023-03-22T04:31:04.081Z,97890.78
2023-03-22T04:33:39.367Z,97891.44
2023-03-22T04:36:10.431Z,97887.06
2023-03-22T04:38:40.180Z,97891.72
2023-03-22T04:41:08.441Z,97887.13
2023-03-22T04:43:39.311Z,97884.97
2023-03-22T04:46:10.124Z,97885.94
2023-03-22T04:48:40.357Z,97889.34
2023-03-22T04:51:09.531Z,97885.59
2023-03-22T04:53:39.333Z,97886.38
2023-03-22T04:56:09.350Z,97893.31
2023-03-22T04:58:39.953Z,97896.25
2023-03-22T05:01:08.747Z,97893.53
2023-03-22T05:03:37.271Z,97890.13
2023-03-22T05:06:09.363Z,97893.31
2023-03-22T05:08:37.226Z,97890.91
2023-03-22T05:11:08.051Z,97891.50
2023-03-22T05:13:36.441Z,97894.00
2023-03-22T05:16:05.138Z,97889.47
2023-03-22T05:18:32.939Z,97888.78
2023-03-22T05:21:03.588Z,97883.13
2023-03-22T05:23:32.646Z,97884.94
2023-03-22T05:26:01.848Z,97884.06
2023-03-22T05:28:29.630Z,97880.41
2023-03-22T05:30:57.429Z,97888.25
2023-03-22T05:33:25.114Z,97877.94
2023-03-22T05:35:52.836Z,97885.41
2023-03-22T05:38:22.835Z,97882.81
2023-03-22T05:40:51.972Z,97885.38
2023-03-22T05:43:19.787Z,97880.06
2023-03-22T05:45:48.067Z,97877.22
2023-03-22T05:48:15.777Z,97869.41
2023-03-22T05:50:43.594Z,97871.88
2023-03-22T05:53:11.614Z,97873.44
2023-03-22T05:55:39.458Z,97867.00
2023-03-22T05:58:09.108Z,97874.25
2023-03-22T06:00:37.462Z,97864.38
2023-03-22T06:03:05.401Z,97867.44
2023-03-22T06:05:36.517Z,97860.41
2023-03-22T06:08:05.483Z,97865.56
2023-03-22T06:10:33.855Z,97867.97
2023-03-22T06:13:02.309Z,97856.72
2023-03-22T06:15:31.992Z,97856.44
2023-03-22T06:18:00.729Z,97860.53
2023-03-22T06:20:29.121Z,97856.66
2023-03-22T06:22:57.303Z,97863.00
2023-03-22T06:25:26.372Z,97857.47
2023-03-22T06:27:54.647Z,97848.19
2023-03-22T06:30:23.151Z,97847.66
2023-03-22T06:32:52.275Z,97852.66
2023-03-22T06:35:20.106Z,97847.91
2023-03-22T06:37:47.982Z,97857.66
2023-03-22T06:40:16.565Z,97847.41
2023-03-22T06:42:44.385Z,97857.78
2023-03-22T06:45:14.642Z,97858.59
2023-03-22T06:47:42.384Z,97854.72
2023-03-22T06:50:12.851Z,97852.25
2023-03-22T06:52:40.919Z,97857.97
2023-03-22T06:55:09.515Z,97856.88
2023-03-22T06:57:37.342Z,97859.22
2023-03-22T07:00:06.224Z,97865.50
2023-03-22T07:02:33.994Z,97858.81
2023-03-22T07:05:01.750Z,97853.38
2023-03-22T07:07:30.870Z,97864.34
2023-03-22T07:09:58.874Z,97856.06
2023-03-22T07:12:26.681Z,97860.88
2023-03-22T07:14:54.662Z,97866.97
2023-03-22T07:17:22.529Z,97862.53
2023-03-22T07:19:50.382Z,97869.72
2023-03-22T07:22:18.364Z,97876.63
2023-03-22T07:24:56.998Z,97863.75
2023-03-22T07:27:26.377Z,97867.94
2023-03-22T07:29:55.032Z,97864.34
2023-03-22T07:32:22.877Z,97865.81
2023-03-22T07:34:50.682Z,97862.34
2023-03-22T07:37:18.431Z,97865.75
2023-03-22T07:39:47.648Z,97868.16
2023-03-22T07:42:18.286Z,97869.31
2023-03-22T07:44:47.165Z,97868.13
2023-03-22T07:47:15.028Z,97868.00
2023-03-22T07:49:43.892Z,97870.59
2023-03-22T07:52:11.556Z,97861.88
2023-03-22T07:54:39.374Z,97864.91
2023-03-22T07:57:08.703Z,97860.81
2023-03-22T07:59:39.220Z,97854.25
2023-03-22T08:02:07.702Z,97862.47
2023-03-22T08:04:35.378Z,97853.00
2023-03-22T08:07:03.178Z,97851.56
2023-03-22T08:09:30.954Z,97853.03
2023-03-22T08:11:58.666Z,97844.84
2023-03-22T08:14:36.237Z,97842.56
2023-03-22T08:17:04.962Z,97853.53
2023-03-22T08:19:33.100Z,97847.69
2023-03-22T08:22:01.095Z,97856.31
2023-03-22T08:24:28.916Z,97859.28
2023-03-22T08:26:57.659Z,97850.88
2023-03-22T08:29:27.633Z,97850.34
2023-03-22T08:31:56.115Z,97848.78
2023-03-22T08:34:23.821Z,97845.22
2023-03-22T08:36:51.494Z,97839.47
2023-03-22T08:39:19.201Z,97840.22
2023-03-22T08:41:46.852Z,97844.13
2023-03-22T08:44:14.544Z,97843.47
2023-03-22T08:46:43.651Z,97833.47
2023-03-22T08:49:11.409Z,97835.44
2023-03-22T08:51:40.310Z,97845.69
2023-03-22T08:54:08.259Z,97839.84
2023-03-22T08:56:38.149Z,97846.06
2023-03-22T08:59:06.637Z,97841.63
2023-03-22T09:01:34.606Z,97845.81
2023-03-22T09:04:04.235Z,97845.94
2023-03-22T09:06:32.379Z,97838.22
2023-03-22T09:09:00.080Z,97834.16
2023-03-22T09:11:28.946Z,97827.88
2023-03-22T09:13:56.586Z,97836.63
2023-03-22T09:16:24.343Z,97833.50
2023-03-22T09:18:52.063Z,97827.44
2023-03-22T09:21:21.836Z,97821.13
2023-03-22T09:23:50.325Z,97831.84
2023-03-22T09:26:18.218Z,97826.09
2023-03-22T09:28:46.815Z,97821.53
2023-03-22T09:31:14.754Z,97812.75
2023-03-22T09:33:42.863Z,97814.72
2023-03-22T09:36:12.721Z,97815.81
2023-03-22T09:38:42.185Z,97817.38
2023-03-22T09:41:15.144Z,97808.44
2023-03-22T09:43:47.437Z,97814.91
2023-03-22T09:46:18.732Z,97805.59
2023-03-22T09:48:49.712Z,97807.91
2023-03-22T09:51:31.892Z,97811.69
2023-03-22T09:54:01.119Z,97808.09
2023-03-22T09:56:31.549Z,97804.75
2023-03-22T09:59:09.717Z,97797.72
2023-03-22T10:01:46.216Z,97799.53
2023-03-22T10:04:41.594Z,97799.44
2023-03-22T10:07:22.477Z,97797.94
2023-03-22T10:10:00.234Z,97782.78
2023-03-22T10:12:31.707Z,97780.00
2023-03-22T10:15:06.700Z,97783.41
2023-03-22T10:17:37.034Z,97789.25
2023-03-22T10:20:09.702Z,97788.94
2023-03-22T10:22:41.690Z,97780.78
2023-03-22T10:25:16.129Z,97783.59
2023-03-22T10:27:44.437Z,97775.06
2023-03-22T10:30:21.985Z,97774.59
2023-03-22T10:32:58.150Z,97770.78
2023-03-22T10:35:26.728Z,97764.44
2023-03-22T10:37:57.227Z,97770.78
2023-03-22T10:40:30.216Z,97782.69
2023-03-22T10:43:01.783Z,97763.59
2023-03-22T10:45:29.826Z,97761.56
2023-03-22T10:48:01.998Z,97757.78
2023-03-22T10:50:33.452Z,97756.88
2023-03-22T10:53:06.303Z,97755.53
2023-03-22T10:55:40.494Z,97746.75
2023-03-22T10:58:14.754Z,97747.53
2023-03-22T11:00:47.262Z,97755.75
2023-03-22T11:03:29.301Z,97746.75
2023-03-22T11:06:02.437Z,97747.97
2023-03-22T11:08:30.129Z,97742.94
2023-03-22T11:11:00.470Z,97740.94
2023-03-22T11:13:29.014Z,97739.50
2023-03-22T11:16:01.373Z,97742.22
2023-03-22T11:18:33.092Z,97736.75
2023-03-22T11:21:05.357Z,97734.94
2023-03-22T11:23:35.219Z,97738.19
2023-03-22T11:26:10.468Z,97734.03
2023-03-22T11:28:43.016Z,97744.81
2023-03-22T11:31:12.325Z,97735.78
2023-03-22T11:33:55.577Z,97716.88
2023-03-22T11:36:24.311Z,97725.41
2023-03-22T11:39:00.052Z,97720.72
2023-03-22T11:41:30.866Z,97719.25
2023-03-22T11:44:03.712Z,97706.06
2023-03-22T11:46:32.507Z,97724.34
2023-03-22T11:49:04.129Z,97706.69
2023-03-22T11:51:35.208Z,97699.78
2023-03-22T11:54:09.340Z,97706.34
2023-03-22T11:56:43.381Z,97704.44
2023-03-22T11:59:16.697Z,97698.53
2023-03-22T12:01:51.280Z,97707.56
2023-03-22T12:04:25.472Z,97695.47
2023-03-22T12:06:56.741Z,97698.69
2023-03-22T12:09:33.520Z,97694.44
2023-03-22T12:12:04.982Z,97689.06
2023-03-22T12:14:41.428Z,97697.03
2023-03-22T12:17:14.680Z,97689.81
2023-03-22T12:19:54.582Z,97688.59
2023-03-22T12:22:29.020Z,97694.34
2023-03-22T12:24:56.721Z,97688.25
2023-03-22T12:27:28.046Z,97682.31
2023-03-22T12:29:59.561Z,97676.75
2023-03-22T12:32:29.589Z,97681.53
2023-03-22T12:35:16.125Z,97670.50
2023-03-22T12:37:49.113Z,97664.56
2023-03-22T12:40:23.448Z,97665.59
2023-03-22T12:43:00.527Z,97660.16
2023-03-22T12:45:32.748Z,97660.75
2023-03-22T12:48:07.031Z,97655.44
2023-03-22T12:50:40.275Z,97659.09
2023-03-22T12:53:14.563Z,97656.19
2023-03-22T12:55:43.239Z,97654.91
2023-03-22T12:58:18.128Z,97650.47
2023-03-22T13:00:49.394Z,97657.66
2023-03-22T13:03:27.362Z,97646.47
2023-03-22T13:06:05.589Z,97642.44
2023-03-22T13:09:13.110Z,97648.03
2023-03-22T13:11:41.121Z,97640.53
2023-03-22T13:14:13.792Z,97641.44
2023-03-22T13:16:53.829Z,97649.97
2023-03-22T13:19:33.203Z,97633.81
2023-03-22T13:22:19.656Z,97639.66
2023-03-22T13:25:01.665Z,97628.81
2023-03-22T13:27:43.609Z,97628.63
2023-03-22T13:30:23.655Z,97628.50
2023-03-22T13:32:56.318Z,97626.69
2023-03-22T13:35:28.177Z,97622.53
2023-03-22T13:38:03.739Z,97620.41
2023-03-22T13:40:36.831Z,97623.63
2023-03-22T13:43:13.481Z,97619.28
2023-03-22T13:46:25.899Z,97620.78
2023-03-22T13:49:13.846Z,97610.28
2023-03-22T13:51:42.611Z,97603.16
2023-03-22T13:54:17.498Z,97611.69
2023-03-22T13:56:56.902Z,97610.66
2023-03-22T13:59:29.793Z,97609.28
2023-03-22T14:02:01.090Z,97599.56
2023-03-22T14:04:37.830Z,97603.22
2023-03-22T14:07:13.194Z,97592.78
2023-03-22T14:09:45.338Z,97594.97
2023-03-22T14:12:19.994Z,97592.88
2023-03-22T14:14:51.917Z,97597.00
2023-03-22T14:17:31.369Z,97581.41
2023-03-22T14:20:02.144Z,97583.66
